Weather History for Clinton, MO

Change the Weather History Date:

Thursday, February 14, 2013

  Actual Average (KSZL) Record (KSZL)
Temperature  
Mean Temperature 42 °F -  
Max Temperature 51 °F 44 °F 64 °F (2006)
Min Temperature 32 °F 27 °F 6 °F (2007)
Degree Days  
Heating Degree Days 24    
Moisture  
Dew Point 31 °F    
Average Humidity 66    
Maximum Humidity 93    
Minimum Humidity 47    
Precipitation  
Precipitation 0.00 in - - ()
Sea Level Pressure  
Sea Level Pressure 30.00 in    
Wind  
Wind Speed 8 mph (West)    
Max Wind Speed 13 mph    
Max Gust Speed 18 mph    
Visibility 10 miles    
Events      
Averages and records for this station are not official NWS values.
T = Trace of Precipitation, MM = Missing Value Source: NWS Daily Summary

Daily Weather History Graph

Daily Weather History Graph

Search for Another Location

Airport:

Trip Planner

Search our weather history database for the weather conditions in past years. The results will help you decide how hot, cold, wet, or windy it might be!

Date:

Astronomy

Feb. 14, 2013 Rise Set
Actual Time 7:06 AM CST 5:52 PM CST
Civil Twilight 6:38 AM CST 6:19 PM CST
Nautical Twilight 6:07 AM CST 6:50 PM CST
Astronomical Twilight 5:37 AM CST 7:21 PM CST
Moon 9:12 AM CST (2/14) 10:50 PM CST (2/14)
Length of Visible Light 11h 40m
Length of Day
10h 46m
Waxing Crescent, 22% of the Moon is Illuminated
Feb 14
Waxing Crescent
Feb 17
First Quarter
Feb 25
Full
Mar 4
Last Quarter
Mar 11
New

Hourly Weather History & Observations

Time (CST) Temp. Windchill Dew Point Humidity Pressure Visibility Wind Dir Wind Speed Gust Speed Precip Events Conditions
12:15 AM 39.2 °F 33.0 °F 32.0 °F 75% 29.86 in 10.0 mi SW 9.2 mph - N/A   Clear
12:35 AM 39.2 °F 33.0 °F 32.0 °F 75% 29.87 in 10.0 mi SW 9.2 mph - N/A   Clear
12:55 AM 39.2 °F 33.0 °F 32.0 °F 75% 29.87 in 10.0 mi SW 9.2 mph - N/A   Mostly Cloudy
1:15 AM 39.2 °F 33.0 °F 32.0 °F 75% 29.87 in 10.0 mi SW 9.2 mph - N/A   Scattered Clouds
1:35 AM 39.2 °F 33.0 °F 32.0 °F 75% 29.87 in 10.0 mi SW 9.2 mph - N/A   Clear
1:55 AM 39.2 °F 33.0 °F 32.0 °F 75% 29.87 in 10.0 mi SW 9.2 mph - N/A   Clear
2:15 AM 37.4 °F 32.1 °F 32.0 °F 81% 29.88 in 10.0 mi SW 6.9 mph - N/A   Clear
2:35 AM 37.4 °F 32.8 °F 32.0 °F 81% 29.88 in 10.0 mi SW 5.8 mph - N/A   Clear
2:55 AM 35.6 °F 30.7 °F 32.0 °F 87% 29.88 in 10.0 mi SW 5.8 mph - N/A   Clear
3:15 AM 35.6 °F 30.7 °F 32.0 °F 87% 29.88 in 10.0 mi SW 5.8 mph - N/A   Clear
3:35 AM 35.6 °F 29.9 °F 32.0 °F 87% 29.88 in 10.0 mi SW 6.9 mph - N/A   Clear
3:55 AM 35.6 °F 29.9 °F 32.0 °F 87% 29.88 in 10.0 mi SW 6.9 mph - N/A   Clear
4:15 AM 35.6 °F 29.2 °F 30.2 °F 81% 29.87 in 10.0 mi SW 8.1 mph - N/A   Clear
4:35 AM 35.6 °F 29.9 °F 32.0 °F 87% 29.87 in 10.0 mi SW 6.9 mph - N/A   Clear
4:55 AM 35.6 °F 30.7 °F 30.2 °F 81% 29.88 in 10.0 mi SW 5.8 mph - N/A   Clear
5:15 AM 35.6 °F 29.9 °F 30.2 °F 81% 29.89 in 10.0 mi WSW 6.9 mph - N/A   Clear
5:35 AM 32.0 °F 25.6 °F 30.2 °F 93% 29.91 in 10.0 mi WSW 6.9 mph - N/A   Clear
5:55 AM 33.8 °F 28.6 °F 30.2 °F 87% 29.91 in 10.0 mi SW 5.8 mph - N/A   Clear
6:15 AM 33.8 °F 29.6 °F 30.2 °F 87% 29.91 in 10.0 mi SW 4.6 mph - N/A   Clear
6:35 AM 33.8 °F - 30.2 °F 87% 29.92 in 10.0 mi Calm Calm - N/A   Clear
6:55 AM 32.0 °F - 30.2 °F 93% 29.93 in 10.0 mi Calm Calm - N/A   Clear
7:15 AM 33.8 °F 29.6 °F 30.2 °F 87% 29.95 in 10.0 mi SW 4.6 mph - N/A   Scattered Clouds
7:35 AM 35.6 °F 30.7 °F 32.0 °F 87% 29.96 in 9.0 mi SW 5.8 mph - N/A   Mostly Cloudy
7:55 AM 35.6 °F 30.7 °F 32.0 °F 87% 29.97 in 10.0 mi SW 5.8 mph - N/A   Mostly Cloudy
8:15 AM 35.6 °F 32.8 °F 32.0 °F 87% 29.99 in 10.0 mi SW 3.5 mph - N/A   Scattered Clouds
8:35 AM 37.4 °F 33.8 °F 32.0 °F 81% 30.00 in 9.0 mi West 4.6 mph - N/A   Clear
8:55 AM 39.2 °F 34.2 °F 32.0 °F 75% 30.00 in 10.0 mi West 6.9 mph - N/A   Clear
9:15 AM 42.8 °F 40.1 °F 32.0 °F 66% 30.00 in 10.0 mi West 4.6 mph - N/A   Clear
9:35 AM 44.6 °F 40.2 °F 32.0 °F 61% 30.01 in 10.0 mi WNW 8.1 mph - N/A   Clear
9:55 AM 46.4 °F 41.9 °F 33.8 °F 62% 30.01 in 9.0 mi NW 9.2 mph - N/A   Clear
10:15 AM 46.4 °F 41.9 °F 32.0 °F 57% 30.01 in 9.0 mi NNW 9.2 mph - N/A   Clear
10:35 AM 48.2 °F - 32.0 °F 54% 30.01 in 10.0 mi NW 8.1 mph - N/A   Clear
10:55 AM 48.2 °F - 32.0 °F 54% 30.01 in 10.0 mi NW 10.4 mph - N/A   Clear
11:15 AM 48.2 °F - 32.0 °F 54% 30.02 in 9.0 mi WNW 10.4 mph - N/A   Clear
11:35 AM 48.2 °F - 32.0 °F 54% 30.02 in 10.0 mi WNW 9.2 mph - N/A   Clear
11:55 AM 50.0 °F - 32.0 °F 50% 30.02 in 10.0 mi WNW 9.2 mph - N/A   Clear
12:15 PM 51.8 °F - 32.0 °F 47% 30.02 in 10.0 mi NW 11.5 mph - N/A   Clear
12:35 PM 51.8 °F - 32.0 °F 47% 30.01 in 10.0 mi NW 9.2 mph - N/A   Clear
12:55 PM 51.8 °F - 32.0 °F 47% 30.01 in 9.0 mi NW 9.2 mph - N/A   Partly Cloudy
1:15 PM 51.8 °F - 32.0 °F 47% 30.01 in 10.0 mi WNW 12.7 mph - N/A   Clear
1:35 PM 51.8 °F - 32.0 °F 47% 30.01 in 10.0 mi WNW 11.5 mph 17.3 mph N/A   Clear
1:55 PM 51.8 °F - 32.0 °F 47% 30.01 in 10.0 mi WNW 12.7 mph - N/A   Clear
2:15 PM 51.8 °F - 32.0 °F 47% 30.01 in 10.0 mi NW 11.5 mph 16.1 mph N/A   Clear
2:35 PM 51.8 °F - 32.0 °F 47% 30.01 in 10.0 mi NW 12.7 mph 16.1 mph N/A   Clear
2:55 PM 51.8 °F - 32.0 °F 47% 30.02 in 10.0 mi WNW 10.4 mph - N/A   Clear
3:15 PM 51.8 °F - 32.0 °F 47% 30.03 in 9.0 mi WNW 11.5 mph 18.4 mph N/A   Clear
3:35 PM 51.8 °F - 32.0 °F 47% 30.03 in 10.0 mi WNW 11.5 mph - N/A   Clear
3:55 PM 51.8 °F - 32.0 °F 47% 30.03 in 10.0 mi NW 8.1 mph - N/A   Clear
4:15 PM 51.8 °F - 32.0 °F 47% 30.04 in 10.0 mi WNW 8.1 mph - N/A   Clear
4:35 PM 50.0 °F - 32.0 °F 50% 30.05 in 10.0 mi WNW 8.1 mph - N/A   Clear
4:55 PM 50.0 °F - 30.2 °F 47% 30.05 in 10.0 mi WNW 8.1 mph - N/A   Clear
5:15 PM 48.2 °F - 32.0 °F 54% 30.06 in 10.0 mi WNW 8.1 mph - N/A   Clear
5:35 PM 48.2 °F - 30.2 °F 50% 30.06 in 10.0 mi West 8.1 mph - N/A   Clear
5:55 PM 48.2 °F - 30.2 °F 50% 30.06 in 10.0 mi WNW 5.8 mph - N/A   Clear
6:15 PM 46.4 °F - 30.2 °F 53% 30.07 in 10.0 mi Calm Calm - N/A   Clear
6:35 PM 46.4 °F 44.3 °F 30.2 °F 53% 30.08 in 10.0 mi WNW 4.6 mph - N/A   Clear
6:55 PM 46.4 °F 42.9 °F 30.2 °F 53% 30.08 in 10.0 mi WNW 6.9 mph - N/A   Clear
7:15 PM 46.4 °F 44.3 °F 32.0 °F 57% 30.09 in 10.0 mi West 4.6 mph - N/A   Clear
7:55 PM 44.6 °F 42.2 °F 32.0 °F 61% 30.09 in 10.0 mi WNW 4.6 mph - N/A   Clear
8:15 PM 44.6 °F 39.7 °F 32.0 °F 61% 30.10 in 10.0 mi WNW 9.2 mph - N/A   Clear
8:35 PM 44.6 °F 40.2 °F 30.2 °F 57% 30.10 in 10.0 mi NW 8.1 mph - N/A   Scattered Clouds
8:55 PM 42.8 °F 39.3 °F 30.2 °F 61% 30.11 in 10.0 mi NW 5.8 mph - N/A   Overcast
9:15 PM 41.0 °F 37.1 °F 30.2 °F 65% 30.12 in 10.0 mi NW 5.8 mph - N/A   Scattered Clouds
9:35 PM 41.0 °F 36.4 °F 30.2 °F 65% 30.12 in 10.0 mi NW 6.9 mph - N/A   Clear
9:55 PM 41.0 °F 38.0 °F 28.4 °F 61% 30.13 in 10.0 mi WNW 4.6 mph - N/A   Clear
10:15 PM 39.2 °F - 30.2 °F 70% 30.13 in 10.0 mi Calm Calm - N/A   Partly Cloudy
10:35 PM 39.2 °F - 30.2 °F 70% 30.13 in 10.0 mi Calm Calm - N/A   Mostly Cloudy
10:55 PM 39.2 °F - 28.4 °F 65% 30.14 in 10.0 mi Calm Calm - N/A   Partly Cloudy
11:15 PM 37.4 °F 32.8 °F 28.4 °F 70% 30.14 in 10.0 mi West 5.8 mph - N/A   Clear
11:35 PM 39.2 °F 33.6 °F 28.4 °F 65% 30.14 in 10.0 mi West 8.1 mph - N/A   Clear
11:55 PM 39.2 °F 35.0 °F 28.4 °F 65% 30.15 in 10.0 mi West 5.8 mph - N/A   Partly Cloudy